Time;durP1;ratioP1;P1;durP2;ratioP2;P2;SDS_P1;SDS_P2;PMS_P1;PMS_P2;Temp;Humidity;BMP_temperature;BMP_pressure;BME280_temperature;BME280_humidity;BME280_pressure;Samples;Min_cycle;Max_cycle;Signal;HPM_P1;HPM_P2
2023/09/12 00:00:26;;;;;;;7.45;1.75;;;;;;;23.43;59.99;101158.09;5033681;28;20051;-44
2023/09/12 00:02:52;;;;;;;6.70;2.35;;;;;;;23.30;60.07;101167.78;5032782;28;20103;-48
2023/09/12 00:05:18;;;;;;;6.57;1.80;;;;;;;23.15;61.01;101162.41;5033340;28;20470;-46
2023/09/12 00:07:44;;;;;;;5.15;1.75;;;;;;;22.91;62.17;101165.81;5015567;28;20036;-47
2023/09/12 00:10:11;;;;;;;6.20;1.95;;;;;;;22.98;62.09;101164.69;5033093;28;20057;-48
2023/09/12 00:12:37;;;;;;;5.43;1.92;;;;;;;22.90;62.16;101174.28;5033232;28;20414;-45
2023/09/12 00:15:04;;;;;;;5.45;1.92;;;;;;;22.88;62.08;101168.28;5033084;28;20021;-47
2023/09/12 00:17:30;;;;;;;6.05;1.70;;;;;;;22.77;62.81;101167.50;5034229;28;20517;-47
2023/09/12 00:19:56;;;;;;;5.15;1.98;;;;;;;22.56;63.55;101171.41;5033065;28;20049;-47
2023/09/12 00:22:23;;;;;;;5.32;1.80;;;;;;;22.44;63.80;101163.53;5032923;28;20529;-48
2023/09/12 00:24:49;;;;;;;6.18;2.10;;;;;;;22.33;64.67;101162.72;5033079;28;20053;-46
2023/09/12 00:27:15;;;;;;;9.77;2.38;;;;;;;22.26;64.72;101166.81;5033401;28;20017;-48
2023/09/12 00:29:42;;;;;;;10.38;2.50;;;;;;;22.19;65.26;101160.84;5032992;28;20053;-48
2023/09/12 00:32:08;;;;;;;8.63;2.35;;;;;;;21.69;67.35;101157.03;5032889;28;20120;-45
2023/09/12 00:34:34;;;;;;;7.82;2.40;;;;;;;21.78;66.99;101178.03;5032690;28;20428;-46
2023/09/12 00:37:00;;;;;;;8.98;2.08;;;;;;;21.60;67.01;101175.84;5033024;28;20084;-46
2023/09/12 00:39:27;;;;;;;5.53;2.00;;;;;;;21.46;67.61;101172.00;5033294;28;20354;-47
2023/09/12 00:41:53;;;;;;;8.45;2.15;;;;;;;21.55;67.61;101173.94;5032822;28;20029;-45
2023/09/12 00:44:19;;;;;;;10.07;2.08;;;;;;;21.41;67.86;101172.00;5032854;28;20076;-46
2023/09/12 00:46:48;;;;;;;5.80;1.83;;;;;;;21.67;67.01;101170.13;5032853;28;20033;-46
2023/09/12 00:49:16;;;;;;;4.22;2.40;;;;;;;21.61;67.08;101161.97;5032746;28;20029;-48
2023/09/12 00:51:44;;;;;;;6.30;2.08;;;;;;;21.41;68.38;101177.44;5032701;28;20079;-48
2023/09/12 00:54:12;;;;;;;7.95;2.50;;;;;;;21.56;68.00;101182.94;5032825;28;20028;-48
2023/09/12 00:56:38;;;;;;;6.05;1.98;;;;;;;21.31;68.56;101170.06;5032671;28;20115;-48
2023/09/12 00:59:06;;;;;;;9.40;2.22;;;;;;;21.32;68.81;101164.38;5032772;28;20362;-49
2023/09/12 01:01:33;;;;;;;9.13;2.42;;;;;;;21.13;69.39;101168.66;5032764;28;20034;-48
2023/09/12 01:04:01;;;;;;;7.80;2.45;;;;;;;20.95;69.73;101169.16;5032828;28;20112;-47
2023/09/12 01:06:32;;;;;;;6.13;2.53;;;;;;;20.68;71.18;101159.25;5032645;28;20097;-45
2023/09/12 01:08:58;;;;;;;6.60;2.15;;;;;;;20.75;71.52;101169.88;5032803;28;20036;-47
2023/09/12 01:11:25;;;;;;;8.90;2.20;;;;;;;20.70;71.30;101167.94;5032301;28;20029;-46
2023/09/12 01:13:51;;;;;;;4.95;2.58;;;;;;;20.42;73.20;101160.16;5033053;28;20030;-45
2023/09/12 01:16:17;;;;;;;8.38;2.85;;;;;;;20.50;73.04;101162.44;5035771;28;20053;-47
2023/09/12 01:18:45;;;;;;;10.63;3.05;;;;;;;20.29;74.33;101165.00;5036351;28;20022;-47
2023/09/12 01:21:23;;;;;;;11.75;2.97;;;;;;;20.42;74.50;101165.59;5036224;28;20034;-48
2023/09/12 01:24:11;;;;;;;9.00;3.00;;;;;;;20.23;75.61;101165.25;5036309;28;20108;-45
2023/09/12 01:27:04;;;;;;;10.63;2.92;;;;;;;20.18;75.62;101159.78;5036570;28;20038;-46
2023/09/12 01:29:32;;;;;;;9.70;3.28;;;;;;;20.06;76.01;101168.13;5036208;28;20104;-45
2023/09/12 01:32:00;;;;;;;12.80;3.17;;;;;;;19.86;77.16;101157.09;5035980;28;20029;-46
2023/09/12 01:34:26;;;;;;;11.73;3.53;;;;;;;19.37;78.92;101149.03;5035781;28;20028;-46
2023/09/12 01:36:53;;;;;;;8.13;2.63;;;;;;;19.17;80.22;101155.09;5035954;28;20469;-45
2023/09/12 01:39:19;;;;;;;9.35;2.60;;;;;;;19.15;80.66;101147.19;5035928;28;20033;-46
2023/09/12 01:41:47;;;;;;;7.75;2.65;;;;;;;19.02;81.16;101155.72;5036194;28;20098;-47
2023/09/12 01:44:14;;;;;;;10.65;2.90;;;;;;;18.79;82.16;101162.25;5035896;28;20053;-46
2023/09/12 01:46:43;;;;;;;6.15;2.72;;;;;;;18.83;82.12;101162.59;5035887;28;20053;-47
2023/09/12 01:49:11;;;;;;;9.60;2.90;;;;;;;18.74;82.55;101162.19;5035766;28;20067;-47
2023/09/12 01:51:38;;;;;;;9.05;2.90;;;;;;;18.60;83.12;101164.44;5035614;28;20068;-44
2023/09/12 01:54:07;;;;;;;11.00;3.17;;;;;;;18.66;83.01;101162.63;5035703;28;20052;-45
2023/09/12 01:56:34;;;;;;;10.13;2.97;;;;;;;18.48;84.29;101163.72;5035766;28;20025;-48
2023/09/12 01:59:01;;;;;;;8.82;3.30;;;;;;;18.18;85.83;101159.50;5035900;28;20029;-48
2023/09/12 02:01:27;;;;;;;9.75;2.97;;;;;;;18.19;85.85;101161.16;5035570;28;20528;-44
2023/09/12 02:03:53;;;;;;;8.23;3.08;;;;;;;18.22;85.98;101169.88;5035745;28;20029;-45
2023/09/12 02:06:20;;;;;;;9.90;3.17;;;;;;;18.27;85.90;101156.41;5035540;28;20045;-45
2023/09/12 02:08:46;;;;;;;11.32;3.95;;;;;;;18.09;87.05;101157.47;5035600;28;20022;-45
2023/09/12 02:11:12;;;;;;;7.22;3.22;;;;;;;17.99;87.97;101160.88;5035537;28;20441;-45
2023/09/12 02:13:38;;;;;;;12.75;3.28;;;;;;;17.85;89.08;101159.53;5035228;28;20390;-47
2023/09/12 02:16:05;;;;;;;14.98;3.78;;;;;;;17.86;88.67;101147.63;5035326;28;20018;-45
2023/09/12 02:18:31;;;;;;;8.35;3.60;;;;;;;17.97;88.39;101151.31;5035576;28;20021;-45
2023/09/12 02:20:59;;;;;;;9.25;3.22;;;;;;;17.82;89.43;101144.63;5035295;28;20478;-46
2023/09/12 02:23:25;;;;;;;6.90;2.75;;;;;;;17.80;90.14;101149.44;5035506;28;20033;-48
2023/09/12 02:25:51;;;;;;;11.13;2.97;;;;;;;17.79;90.07;101157.81;5034958;28;20018;-46
2023/09/12 02:28:18;;;;;;;10.10;3.28;;;;;;;17.81;89.62;101152.97;5035489;28;20030;-47
2023/09/12 02:30:44;;;;;;;8.98;3.50;;;;;;;17.87;88.80;101160.91;5035056;28;20559;-48
2023/09/12 02:33:10;;;;;;;10.43;3.38;;;;;;;17.80;89.16;101159.47;5035273;28;20025;-45
2023/09/12 02:35:36;;;;;;;9.82;3.45;;;;;;;17.90;88.68;101160.44;5034739;28;20152;-45
2023/09/12 02:38:03;;;;;;;7.82;2.92;;;;;;;17.92;88.26;101160.19;5034962;28;20101;-45
2023/09/12 02:40:29;;;;;;;8.15;3.03;;;;;;;18.01;88.05;101149.78;5035235;28;20084;-46
2023/09/12 02:42:55;;;;;;;8.45;3.33;;;;;;;17.89;87.83;101155.28;5034824;28;20528;-48
2023/09/12 02:45:21;;;;;;;5.82;2.83;;;;;;;17.86;88.70;101158.47;5034851;28;20027;-45
2023/09/12 02:47:48;;;;;;;11.07;3.45;;;;;;;17.76;88.76;101161.81;5034617;28;20021;-45
2023/09/12 02:50:14;;;;;;;9.80;3.65;;;;;;;17.73;89.08;101156.09;5034828;28;20025;-45
2023/09/12 02:52:40;;;;;;;8.52;2.95;;;;;;;17.72;89.48;101157.13;5034596;28;20018;-45
2023/09/12 02:55:07;;;;;;;8.40;3.38;;;;;;;17.69;89.58;101161.13;5016565;28;20382;-44
2023/09/12 02:57:33;;;;;;;11.02;3.20;;;;;;;17.83;88.94;101169.81;5034631;28;20574;-44
2023/09/12 02:59:59;;;;;;;6.93;2.80;;;;;;;17.75;88.34;101156.66;5034563;28;20491;-44
2023/09/12 03:02:28;;;;;;;9.40;3.45;;;;;;;17.63;89.43;101151.28;5034333;28;20061;-44
2023/09/12 03:04:54;;;;;;;7.32;3.05;;;;;;;17.77;88.39;101152.66;5034425;28;20104;-44
2023/09/12 03:07:21;;;;;;;9.98;3.63;;;;;;;17.70;88.70;101151.94;5034438;28;20057;-45
2023/09/12 03:09:50;;;;;;;10.15;3.22;;;;;;;17.70;88.54;101157.38;5034300;28;20021;-43
2023/09/12 03:12:16;;;;;;;9.25;3.70;;;;;;;17.73;88.17;101169.63;5034361;28;20164;-44
2023/09/12 03:14:43;;;;;;;7.43;3.13;;;;;;;17.70;88.20;101170.91;5034390;28;20075;-45
2023/09/12 03:17:09;;;;;;;7.47;3.53;;;;;;;17.67;88.08;101169.53;5034740;28;20112;-47
2023/09/12 03:19:35;;;;;;;6.55;3.40;;;;;;;17.63;88.83;101164.84;5034247;28;20029;-45
2023/09/12 03:22:02;;;;;;;8.15;3.55;;;;;;;17.40;89.87;101163.09;5034126;28;20029;-45
2023/09/12 03:24:28;;;;;;;10.30;3.33;;;;;;;17.45;89.35;101171.28;5016603;28;20025;-44
2023/09/12 03:26:55;;;;;;;9.07;3.45;;;;;;;17.56;89.37;101173.13;5034127;28;20105;-47
2023/09/12 03:29:21;;;;;;;10.85;3.08;;;;;;;17.68;88.81;101165.75;5032879;28;20037;-43
2023/09/12 03:31:47;;;;;;;8.13;3.42;;;;;;;17.69;88.65;101178.19;5033729;28;20116;-46
2023/09/12 03:34:16;;;;;;;8.85;3.47;;;;;;;17.76;88.62;101178.06;5033501;28;20049;-44
2023/09/12 03:36:42;;;;;;;8.40;3.65;;;;;;;17.78;88.15;101180.56;5033349;28;20120;-45
2023/09/12 03:39:09;;;;;;;8.07;2.95;;;;;;;17.71;87.59;101180.66;5033303;28;20030;-47
2023/09/12 03:41:35;;;;;;;6.53;2.75;;;;;;;17.59;88.32;101180.72;5033859;28;20493;-45
2023/09/12 03:44:02;;;;;;;7.30;2.80;;;;;;;17.56;88.67;101183.94;5033686;28;20021;-45
2023/09/12 03:46:28;;;;;;;8.90;3.17;;;;;;;17.47;88.84;101185.38;5048967;28;20040;-46
2023/09/12 03:48:54;;;;;;;9.07;3.25;;;;;;;17.34;89.88;101197.34;5033655;28;20095;-44
2023/09/12 03:51:21;;;;;;;8.60;3.20;;;;;;;17.45;88.72;101195.66;5033367;28;20032;-43
2023/09/12 03:53:49;;;;;;;7.70;2.78;;;;;;;17.45;88.93;101189.41;5033456;28;20021;-44
2023/09/12 03:56:19;;;;;;;6.25;2.92;;;;;;;17.47;88.80;101198.09;5033317;28;20107;-44
2023/09/12 03:58:46;;;;;;;6.25;2.67;;;;;;;17.51;88.35;101193.84;5033349;28;20070;-46
2023/09/12 04:01:13;;;;;;;7.50;2.75;;;;;;;17.55;88.51;101197.72;5033510;28;20466;-44
2023/09/12 04:03:39;;;;;;;7.45;3.22;;;;;;;17.62;88.45;101195.69;5033303;28;20088;-45
2023/09/12 04:06:05;;;;;;;6.80;2.75;;;;;;;17.34;90.25;101199.22;5033325;28;20021;-45
2023/09/12 04:08:32;;;;;;;10.73;3.45;;;;;;;17.35;90.17;101206.28;5015591;28;20117;-44
2023/09/12 04:10:58;;;;;;;8.55;3.10;;;;;;;17.21;91.07;101207.63;5032973;28;20112;-44
2023/09/12 04:13:25;;;;;;;9.10;3.22;;;;;;;17.19;91.25;101209.75;5033174;28;20025;-44
2023/09/12 04:15:51;;;;;;;9.18;3.63;;;;;;;17.34;90.26;101204.66;5033190;28;20026;-45
2023/09/12 04:18:17;;;;;;;9.63;3.47;;;;;;;17.29;90.45;101201.84;5033034;28;20025;-45
2023/09/12 04:20:43;;;;;;;3.85;2.33;;;;;;;17.15;91.74;101210.22;5032976;28;20060;-45
2023/09/12 04:23:10;;;;;;;8.30;2.90;;;;;;;17.19;91.32;101215.16;5048439;28;20025;-45
2023/09/12 04:25:36;;;;;;;8.20;3.40;;;;;;;17.23;91.01;101208.22;5015533;28;20025;-43
2023/09/12 04:28:02;;;;;;;5.97;2.90;;;;;;;17.17;90.67;101211.88;5048341;28;20055;-43
2023/09/12 04:30:29;;;;;;;12.88;3.55;;;;;;;17.11;91.37;101214.50;5032890;28;20030;-45
2023/09/12 04:32:55;;;;;;;8.90;3.72;;;;;;;17.06;91.70;101222.50;5033274;28;20052;-45
2023/09/12 04:35:22;;;;;;;6.65;3.60;;;;;;;17.05;91.67;101222.75;5032545;28;20077;-43
2023/09/12 04:37:48;;;;;;;7.95;4.10;;;;;;;17.01;91.77;101225.09;5032830;28;20552;-45
2023/09/12 04:40:14;;;;;;;10.13;4.78;;;;;;;16.98;91.99;101235.56;5032691;28;20018;-47
2023/09/12 04:42:41;;;;;;;12.77;4.53;;;;;;;16.81;92.74;101228.19;5032660;28;20022;-44
2023/09/12 04:45:07;;;;;;;16.08;5.38;;;;;;;16.82;92.36;101227.16;5032760;28;20033;-46
2023/09/12 04:47:34;;;;;;;10.88;4.63;;;;;;;16.77;93.02;101235.16;5032728;28;20021;-47
2023/09/12 04:50:01;;;;;;;13.02;4.70;;;;;;;16.73;93.06;101235.84;5036062;28;20100;-44
2023/09/12 04:52:27;;;;;;;11.73;4.65;;;;;;;16.68;93.87;101231.13;5036706;28;20398;-44
2023/09/12 04:54:54;;;;;;;14.68;4.55;;;;;;;16.67;94.02;101228.66;5035743;28;20025;-44
2023/09/12 04:57:20;;;;;;;16.88;5.57;;;;;;;16.48;95.60;101226.06;5037778;28;20049;-45
2023/09/12 04:59:46;;;;;;;15.73;5.65;;;;;;;16.40;96.45;101236.44;5037426;28;20021;-44
2023/09/12 05:02:12;;;;;;;10.80;4.70;;;;;;;16.66;94.63;101229.69;5036829;28;20078;-44
2023/09/12 05:04:39;;;;;;;10.95;4.43;;;;;;;16.58;94.93;101229.00;5036678;28;20033;-43
2023/09/12 05:07:05;;;;;;;13.70;4.75;;;;;;;16.57;94.27;101226.56;5037006;28;20033;-44
2023/09/12 05:09:31;;;;;;;16.40;4.63;;;;;;;16.52;94.20;101224.56;5036735;28;20394;-44
2023/09/12 05:11:57;;;;;;;23.35;5.13;;;;;;;16.50;94.55;101220.47;5036788;28;20084;-45
2023/09/12 05:14:24;;;;;;;11.82;4.75;;;;;;;16.37;95.25;101214.22;5036545;28;20421;-44
2023/09/12 05:16:50;;;;;;;12.73;4.18;;;;;;;16.42;95.16;101218.91;5036497;28;20057;-44
2023/09/12 05:19:16;;;;;;;13.75;4.70;;;;;;;16.47;94.69;101218.22;5036316;28;20029;-45
2023/09/12 05:21:42;;;;;;;11.27;4.25;;;;;;;16.42;95.28;101224.31;5036287;28;20026;-45
2023/09/12 05:24:09;;;;;;;14.93;4.68;;;;;;;16.44;95.36;101226.81;5036086;28;20105;-46
2023/09/12 05:26:35;;;;;;;10.38;4.72;;;;;;;16.38;95.19;101228.56;5036391;28;20030;-44
2023/09/12 05:29:02;;;;;;;12.50;4.90;;;;;;;16.41;95.25;101228.09;5036328;28;20458;-45
2023/09/12 05:31:28;;;;;;;16.33;5.18;;;;;;;16.39;95.49;101226.69;5018267;28;20394;-44
2023/09/12 05:33:54;;;;;;;12.85;4.93;;;;;;;16.41;95.72;101230.78;5035972;28;20052;-45
2023/09/12 05:36:20;;;;;;;15.00;5.75;;;;;;;16.36;95.94;101217.16;5035907;28;20509;-44
2023/09/12 05:38:46;;;;;;;18.25;5.78;;;;;;;16.33;95.57;101223.03;5035981;28;20030;-44
2023/09/12 05:41:13;;;;;;;14.27;5.85;;;;;;;16.14;96.36;101219.59;5035890;28;20028;-45
2023/09/12 05:43:39;;;;;;;12.80;5.95;;;;;;;16.27;95.42;101221.28;5035908;28;20044;-47
2023/09/12 05:46:05;;;;;;;14.80;5.90;;;;;;;16.20;95.00;101217.84;5035711;28;20018;-47
2023/09/12 05:48:31;;;;;;;18.30;6.20;;;;;;;16.08;95.58;101225.94;5035756;28;20104;-44
2023/09/12 05:50:58;;;;;;;13.27;5.30;;;;;;;16.08;95.67;101225.94;5035551;28;20386;-45
2023/09/12 05:53:24;;;;;;;16.58;6.57;;;;;;;16.04;96.83;101227.47;5035632;28;20076;-45
2023/09/12 05:55:50;;;;;;;15.27;6.05;;;;;;;16.12;96.64;101220.91;5035619;28;20059;-43
2023/09/12 05:58:17;;;;;;;18.48;6.32;;;;;;;16.07;96.66;101217.03;5035641;28;20067;-45
2023/09/12 06:00:43;;;;;;;15.18;6.60;;;;;;;16.20;95.57;101229.47;5034789;28;20026;-43
2023/09/12 06:03:09;;;;;;;19.83;6.55;;;;;;;16.18;95.73;101225.38;5035321;28;20025;-43
2023/09/12 06:05:35;;;;;;;20.40;6.18;;;;;;;16.20;95.69;101228.66;5035450;28;20079;-42
2023/09/12 06:08:02;;;;;;;28.83;6.97;;;;;;;16.16;96.42;101231.03;5035317;28;20021;-43
2023/09/12 06:10:28;;;;;;;30.55;7.15;;;;;;;16.26;95.53;101225.00;5035428;28;20421;-43
2023/09/12 06:12:54;;;;;;;17.25;5.70;;;;;;;16.34;94.54;101232.78;5035424;28;20481;-43
2023/09/12 06:15:20;;;;;;;18.10;6.28;;;;;;;16.22;94.84;101223.88;5035235;28;20500;-44
2023/09/12 06:17:47;;;;;;;16.80;5.80;;;;;;;16.19;94.66;101230.53;5035402;28;20021;-43
2023/09/12 06:20:13;;;;;;;19.52;6.20;;;;;;;16.17;94.29;101237.25;5035216;28;20033;-44
2023/09/12 06:22:39;;;;;;;18.90;5.00;;;;;;;16.22;93.83;101238.19;5035341;28;20035;-44
2023/09/12 06:25:06;;;;;;;20.05;6.13;;;;;;;16.23;93.38;101233.59;5035090;28;20025;-44
2023/09/12 06:27:32;;;;;;;23.00;6.28;;;;;;;16.21;93.74;101241.94;5035065;28;20116;-47
2023/09/12 06:29:59;;;;;;;16.17;5.78;;;;;;;16.29;93.08;101236.19;5035089;28;20029;-46
2023/09/12 06:32:25;;;;;;;19.65;5.85;;;;;;;16.15;94.74;101239.34;5034845;28;20052;-46
2023/09/12 06:34:51;;;;;;;21.13;6.13;;;;;;;16.24;94.07;101235.25;5034553;28;20077;-44
2023/09/12 06:37:18;;;;;;;20.58;6.68;;;;;;;16.11;95.29;101239.00;5035469;28;20048;-45
2023/09/12 06:39:44;;;;;;;20.00;6.60;;;;;;;16.07;95.69;101237.81;5034957;28;20025;-43
2023/09/12 06:42:10;;;;;;;21.63;6.25;;;;;;;16.22;94.92;101235.50;5035088;28;20057;-44
2023/09/12 06:44:37;;;;;;;16.70;6.22;;;;;;;16.29;94.78;101238.06;5035108;28;20101;-43
2023/09/12 06:47:06;;;;;;;19.00;6.13;;;;;;;16.33;94.37;101240.06;5034939;28;20072;-44
2023/09/12 06:49:32;;;;;;;21.48;6.07;;;;;;;16.27;94.50;101235.59;5035099;28;20026;-45
2023/09/12 06:51:59;;;;;;;20.10;6.43;;;;;;;16.34;94.07;101243.59;5034654;28;20034;-44
2023/09/12 06:54:25;;;;;;;21.42;6.85;;;;;;;16.32;94.07;101234.88;5034536;28;20381;-44
2023/09/12 06:56:51;;;;;;;18.80;5.65;;;;;;;16.34;94.07;101246.28;5034987;28;20025;-43
2023/09/12 06:59:18;;;;;;;16.90;5.57;;;;;;;16.21;93.85;101255.44;5034571;28;20030;-44
2023/09/12 07:01:44;;;;;;;21.25;5.93;;;;;;;16.13;94.03;101255.78;5034689;28;20466;-46
2023/09/12 07:04:11;;;;;;;16.73;7.07;;;;;;;16.11;94.19;101249.81;5034336;28;20128;-45
2023/09/12 07:06:37;;;;;;;16.33;6.00;;;;;;;16.21;93.89;101244.66;5034328;28;20018;-44
2023/09/12 07:09:04;;;;;;;21.02;6.18;;;;;;;16.25;94.03;101242.28;5034344;28;20036;-44
2023/09/12 07:11:31;;;;;;;17.48;5.82;;;;;;;16.25;93.56;101243.09;5034445;28;20022;-43
2023/09/12 07:13:57;;;;;;;17.02;6.10;;;;;;;16.27;93.32;101249.13;5034133;28;20028;-44
2023/09/12 07:16:23;;;;;;;18.08;5.38;;;;;;;16.20;92.83;101248.38;5034069;28;20040;-44
2023/09/12 07:18:50;;;;;;;16.80;5.55;;;;;;;16.25;93.41;101248.50;5034101;28;20104;-43
2023/09/12 07:21:16;;;;;;;21.13;6.10;;;;;;;16.30;93.75;101242.41;5033995;28;20386;-44
2023/09/12 07:23:42;;;;;;;14.40;5.80;;;;;;;16.32;93.59;101246.53;5034142;28;20466;-43
2023/09/12 07:26:13;;;;;;;19.50;6.07;;;;;;;16.44;93.27;101243.00;5034080;28;20055;-43
2023/09/12 07:28:40;;;;;;;21.17;6.47;;;;;;;16.33;93.75;101245.47;5016137;28;20425;-43
2023/09/12 07:31:06;;;;;;;21.23;6.30;;;;;;;16.27;94.31;101245.59;5033957;28;20026;-44
2023/09/12 07:33:33;;;;;;;26.98;6.55;;;;;;;16.17;94.71;101248.03;5034038;28;20559;-44
2023/09/12 07:36:02;;;;;;;21.00;6.55;;;;;;;16.36;93.29;101239.59;5016294;28;20077;-44
2023/09/12 07:38:30;;;;;;;24.50;6.75;;;;;;;16.15;93.93;101245.56;5034257;28;20502;-44
2023/09/12 07:40:57;;;;;;;22.80;6.28;;;;;;;16.18;93.57;101246.97;5033803;28;20034;-45
2023/09/12 07:43:24;;;;;;;19.85;5.68;;;;;;;16.09;94.25;101254.59;5049059;28;20056;-44
2023/09/12 07:45:55;;;;;;;21.02;6.43;;;;;;;16.06;94.31;101238.88;5033716;28;20028;-44
2023/09/12 07:48:22;;;;;;;14.15;5.25;;;;;;;16.10;94.39;101235.47;5033901;28;20106;-45
2023/09/12 07:50:48;;;;;;;18.63;4.80;;;;;;;16.22;94.00;101235.50;5033441;28;20025;-44
2023/09/12 07:53:14;;;;;;;20.70;6.07;;;;;;;16.25;93.71;101239.59;5033558;28;20556;-44
2023/09/12 07:55:45;;;;;;;23.30;6.32;;;;;;;16.13;93.44;101233.34;5033527;28;20378;-44
2023/09/12 07:58:15;;;;;;;24.95;6.25;;;;;;;16.19;93.04;101235.13;5033833;28;20022;-47
2023/09/12 08:00:42;;;;;;;18.52;5.47;;;;;;;16.22;93.37;101240.06;5033831;28;20461;-44
2023/09/12 08:03:09;;;;;;;18.08;5.88;;;;;;;16.13;94.00;101236.06;5033383;28;20079;-44
2023/09/12 08:05:35;;;;;;;20.30;6.03;;;;;;;16.07;94.53;101241.31;5033337;28;20381;-43
2023/09/12 08:08:02;;;;;;;16.92;6.43;;;;;;;16.15;94.05;101232.06;5033675;28;20103;-43
2023/09/12 08:10:29;;;;;;;28.77;7.10;;;;;;;15.99;94.96;101232.72;5033203;28;20021;-45
2023/09/12 08:12:55;;;;;;;20.08;6.80;;;;;;;15.99;94.59;101233.59;5033258;28;20504;-46
2023/09/12 08:15:21;;;;;;;13.57;5.55;;;;;;;16.05;94.24;101232.66;5033592;28;20057;-45
2023/09/12 08:17:51;;;;;;;24.45;6.10;;;;;;;15.99;94.30;101232.72;5033221;28;20032;-45
2023/09/12 08:20:19;;;;;;;16.88;5.75;;;;;;;16.15;93.25;101234.75;5033946;28;20430;-45
2023/09/12 08:22:45;;;;;;;20.25;6.13;;;;;;;16.16;93.58;101230.16;5033135;28;20477;-44
2023/09/12 08:25:12;;;;;;;18.90;6.15;;;;;;;16.17;93.62;101227.25;5032672;28;20489;-44
2023/09/12 08:27:38;;;;;;;27.55;6.85;;;;;;;16.06;94.18;101236.16;5033590;28;20033;-42
2023/09/12 08:30:05;;;;;;;20.58;6.22;;;;;;;16.10;93.93;101216.56;5033071;28;20067;-43
2023/09/12 08:32:31;;;;;;;17.00;5.80;;;;;;;16.13;93.90;101225.25;5033053;28;20108;-44
2023/09/12 08:34:59;;;;;;;29.83;6.80;;;;;;;15.98;94.83;101231.91;5032921;28;20049;-44
2023/09/12 08:37:25;;;;;;;19.38;6.05;;;;;;;16.01;94.64;101228.75;5032899;28;20030;-43
2023/09/12 08:39:56;;;;;;;31.10;6.05;;;;;;;15.91;94.85;101223.09;5032871;28;20021;-43
2023/09/12 08:42:23;;;;;;;15.05;6.40;;;;;;;15.92;93.98;101237.41;5032862;28;20030;-44
2023/09/12 08:44:50;;;;;;;15.68;6.05;;;;;;;15.85;93.96;101229.44;5032823;28;20053;-44
2023/09/12 08:47:22;;;;;;;23.77;6.90;;;;;;;15.85;93.90;101221.34;5032719;28;20040;-45
2023/09/12 08:49:48;;;;;;;26.60;7.07;;;;;;;15.68;95.11;101229.28;5033110;28;20029;-44
2023/09/12 08:52:15;;;;;;;22.08;6.68;;;;;;;15.81;94.67;101230.94;5032714;28;20109;-44
2023/09/12 08:54:41;;;;;;;23.42;6.35;;;;;;;15.78;94.86;101228.72;5032796;28;20022;-44
2023/09/12 08:57:10;;;;;;;25.65;6.60;;;;;;;15.82;94.93;101232.59;5032647;28;20151;-50
2023/09/12 08:59:39;;;;;;;21.25;6.60;;;;;;;15.66;95.27;101225.16;5032525;28;20022;-47
2023/09/12 09:02:09;;;;;;;22.17;6.20;;;;;;;15.73;95.43;101232.09;5032640;28;20036;-47
2023/09/12 09:04:36;;;;;;;20.45;5.75;;;;;;;15.63;94.72;101223.75;5032769;28;20108;-44
2023/09/12 09:07:04;;;;;;;28.38;6.03;;;;;;;15.72;94.55;101232.34;5032555;28;20025;-45
2023/09/12 09:09:32;;;;;;;20.67;6.35;;;;;;;15.74;94.49;101231.03;5032565;28;20033;-45
2023/09/12 09:11:58;;;;;;;24.73;5.82;;;;;;;15.80;94.46;101223.91;5032399;28;20377;-47
2023/09/12 09:14:24;;;;;;;16.58;6.22;;;;;;;15.69;94.89;101222.00;5032480;28;20112;-45
2023/09/12 09:16:51;;;;;;;21.38;6.28;;;;;;;15.68;94.69;101221.19;5032503;28;20040;-48
2023/09/12 09:19:19;;;;;;;17.27;5.68;;;;;;;15.84;94.08;101228.63;5032516;28;20017;-48
2023/09/12 09:21:46;;;;;;;21.33;6.25;;;;;;;15.78;94.95;101224.13;5032429;28;20034;-43
2023/09/12 09:24:17;;;;;;;24.92;6.78;;;;;;;15.83;95.35;101226.16;5032360;28;20104;-44
2023/09/12 09:26:50;;;;;;;31.00;7.15;;;;;;;15.78;95.38;101220.63;5032665;28;20454;-43
2023/09/12 09:29:19;;;;;;;17.15;5.93;;;;;;;15.80;95.61;101218.50;5032448;28;20033;-43
2023/09/12 09:31:49;;;;;;;17.15;5.65;;;;;;;15.76;95.15;101225.41;5032535;28;20071;-44
2023/09/12 09:34:21;;;;;;;19.10;5.97;;;;;;;15.73;94.49;101218.59;5032412;28;20021;-43
2023/09/12 09:36:52;;;;;;;15.13;5.50;;;;;;;15.72;93.93;101230.47;5034769;28;20037;-44
2023/09/12 09:39:23;;;;;;;14.70;5.68;;;;;;;15.74;93.38;101228.34;5036033;28;20022;-44
2023/09/12 09:41:53;;;;;;;15.18;5.30;;;;;;;15.77;93.60;101229.78;5035994;28;20132;-45
2023/09/12 09:44:22;;;;;;;20.65;6.28;;;;;;;15.72;94.05;101222.38;5035876;28;20052;-44
2023/09/12 09:46:54;;;;;;;15.38;4.88;;;;;;;15.76;94.57;101223.53;5035796;28;20470;-43
2023/09/12 09:49:21;;;;;;;21.00;5.65;;;;;;;15.69;94.59;101219.28;5035733;28;20045;-46
2023/09/12 09:51:48;;;;;;;23.25;4.70;;;;;;;15.80;93.91;101215.81;5035723;28;20469;-45
2023/09/12 09:54:14;;;;;;;16.52;5.13;;;;;;;15.76;93.88;101215.44;5035809;28;20128;-43
2023/09/12 09:56:47;;;;;;;20.45;5.80;;;;;;;15.67;94.59;101210.63;5035751;28;20520;-45
2023/09/12 09:59:20;;;;;;;21.63;6.68;;;;;;;15.73;94.71;101209.69;5035979;28;20080;-44
2023/09/12 10:01:50;;;;;;;19.88;6.82;;;;;;;15.58;95.72;101205.50;5035525;28;20022;-44
2023/09/12 10:04:18;;;;;;;21.42;6.50;;;;;;;15.55;96.15;101205.16;5035606;28;20033;-46
2023/09/12 10:06:46;;;;;;;23.75;6.03;;;;;;;15.66;95.56;101203.59;5036181;28;20097;-44
2023/09/12 10:09:16;;;;;;;21.63;6.20;;;;;;;15.65;95.96;101200.03;5036500;28;20028;-43
2023/09/12 10:11:46;;;;;;;22.17;6.47;;;;;;;15.59;95.46;101206.31;5035525;28;20060;-44
2023/09/12 10:14:15;;;;;;;18.95;5.65;;;;;;;15.63;95.52;101204.84;5035769;28;20030;-44
2023/09/12 10:16:47;;;;;;;17.40;6.32;;;;;;;15.67;95.72;101211.44;5035483;28;20038;-45
2023/09/12 10:19:24;;;;;;;20.23;6.20;;;;;;;15.59;95.84;101209.03;5035193;28;20029;-45
2023/09/12 10:22:00;;;;;;;16.77;5.57;;;;;;;15.54;96.50;101209.72;5035170;28;20021;-43
2023/09/12 10:24:28;;;;;;;17.52;6.47;;;;;;;15.58;96.33;101205.50;5035532;28;20438;-45
2023/09/12 10:26:56;;;;;;;16.75;5.72;;;;;;;15.54;96.92;101212.41;5035227;28;20517;-44
2023/09/12 10:29:22;;;;;;;23.92;6.00;;;;;;;15.57;97.03;101209.25;5035098;28;20022;-46
2023/09/12 10:31:49;;;;;;;18.70;6.55;;;;;;;15.57;96.68;101205.75;5034984;28;20104;-47
2023/09/12 10:34:17;;;;;;;23.77;6.90;;;;;;;15.58;96.93;101205.50;5034828;28;20119;-45
2023/09/12 10:36:45;;;;;;;16.80;5.78;;;;;;;15.59;96.31;101204.44;5034811;28;20101;-44
2023/09/12 10:39:13;;;;;;;16.45;5.70;;;;;;;15.66;95.74;101207.09;5034842;28;20032;-44
2023/09/12 10:41:41;;;;;;;17.60;5.53;;;;;;;15.53;96.05;101201.84;5034765;28;20026;-48
2023/09/12 10:44:11;;;;;;;10.50;5.35;;;;;;;15.39;97.47;101198.53;5034686;28;20378;-44
2023/09/12 10:46:39;;;;;;;22.27;6.57;;;;;;;15.33;97.67;101212.94;5034638;28;20029;-46
2023/09/12 10:49:14;;;;;;;24.48;6.65;;;;;;;15.38;97.38;101199.59;5034694;28;20021;-46
2023/09/12 10:51:44;;;;;;;24.48;6.30;;;;;;;15.40;96.66;101204.75;5034605;28;20036;-44
2023/09/12 10:54:25;;;;;;;19.73;6.57;;;;;;;15.40;96.72;101207.44;5034895;28;20026;-44
2023/09/12 10:57:11;;;;;;;24.73;6.00;;;;;;;15.30;96.90;101208.81;5034553;28;20032;-47
2023/09/12 10:59:57;;;;;;;12.98;5.53;;;;;;;15.38;96.62;101201.44;5034629;28;20500;-45
2023/09/12 11:02:35;;;;;;;16.55;5.93;;;;;;;15.46;96.55;101204.66;5034340;28;20113;-45
2023/09/12 11:05:07;;;;;;;21.70;6.45;;;;;;;15.36;97.70;101203.56;5034456;28;20025;-44
2023/09/12 11:07:36;;;;;;;15.05;6.22;;;;;;;15.33;98.34;101207.53;5034548;28;20536;-44
2023/09/12 11:10:23;;;;;;;18.80;5.47;;;;;;;15.42;98.32;101205.34;5034293;28;20086;-44
2023/09/12 11:12:51;;;;;;;16.27;5.70;;;;;;;15.47;97.74;101200.91;5034108;28;20037;-45
2023/09/12 11:15:20;;;;;;;16.80;5.50;;;;;;;15.41;97.81;101201.81;5034116;28;20021;-44
2023/09/12 11:17:48;;;;;;;14.35;5.70;;;;;;;15.37;97.59;101202.50;5034082;28;20067;-46
2023/09/12 11:20:16;;;;;;;16.50;5.05;;;;;;;15.51;97.14;101214.75;5034071;28;20107;-48